Terminal Aerodrome Forecast
Issued by NWS

Home | Current Version | Previous Version | Text Only | Print | Product List | Glossary On
Versions: 1 2 3 4 5 6 7 8 9 10 11 12 13 14 15 16
000
FTUS42 TJSJ 220300 AAA
TAFNCM
TAF AMD
TNCM 220347Z 2204/2224 10015KT P6SM VCTS SCT020CB BKN040
      TEMPO 2204/2208 12018G30KT 2SM +TSRA BKN018CB
     FM220800 08015G30KT P6SM VCTS SCT020CB BKN040 OVC050=

USA.gov is the U.S. government's official web portal to all federal, state and local government web resources and services.